Maersk Dayton — DDSC2 — position and weather

sailwx.info

Track history (hours):
 
Tides and Currents Weather Stations Pressure Air Temp Water Temp Dewpoint Dewpoint Depression Visibility Wind Speed Wind Dir Waves Ship Positions

Maersk Dayton

Last reported at 2015-Mar-28 06:00 UTC. Time now 2015-Mar-28 09:27 UTC.
Position N 44°54' W 016°12'.

Length 281 m; beam 32.2 m; draft 12.5 m.

Type: Cargo ship. MMSI: 218024000.

Wind from 220 at 30 knots

Waves 4.0 meters (13 feet), 99 second period

Barometer 1026.0 mb
Air temperature 13.5 ° C
Visibility: greater than 5.4 NM
Dewpoint 10.9 ° C
Water temperature 11.7 ° C

Date/timePositionNaut miles runAvg speedWind from/ knotsBaromVisibWave heightAir tempDewpointWater temp
2015-Mar-28 06:00N 44°54' W 016°12'6622.1 220 / 301026.0 5.4 4.013.510.911.7
2015-Mar-28 03:00N 45°24' W 014°48'6913.8 220 / 221026.5 5.4 2.513.0 7.412.3
2015-Mar-27 22:00N 46°00' W 013°24'7218.0 220 / 251027.0 5.4 2.513.0 9.411.5
2015-Mar-27 18:00N 46°36' W 011°54'6516.2 15.0 11.3
2015-Mar-27 14:00N 47°06' W 010°30'6120.3 250 / 221025.5 2.2 3.512.2 9.111.3
2015-Mar-27 11:00N 47°36' W 009°12'7715.4 260 / 251022.0 2.512.011.110.9
2015-Mar-27 06:00N 48°18' W 007°36'19417.0 180 / 221019.5 2.2 2.010.0 9.110.5
2015-Mar-26 18:33N 49°52' W 003°17'1817.9
2015-Mar-26 17:33N 49°59' W 002°51'1818.0
2015-Mar-26 16:32N 50°04' W 002°24'1917.2
2015-Mar-26 15:26N 50°09' W 001°55'1715.6
2015-Mar-26 14:22N 50°13' W 001°30'1314.3
2015-Mar-26 13:28N 50°16' W 001°10'1213.4
2015-Mar-26 12:33N 50°20' W 000°52'1313.4
2015-Mar-26 11:33N 50°23' W 000°32'1514.3
2015-Mar-26 10:30N 50°26' W 000°09'1415.1
2015-Mar-26 09:33N 50°32' E 000°12'1615.9
2015-Mar-26 08:33N 50°37' E 000°36'1616.1
2015-Mar-26 07:33N 50°45' E 000°57'1615.5
2015-Mar-26 06:33N 50°55' E 001°17'1414.0
2015-Mar-26 05:34N 51°04' E 001°33'1313.5
2015-Mar-26 04:34N 51°14' E 001°48'1413.6
2015-Mar-26 03:34N 51°25' E 002°01'1414.1
2015-Mar-26 02:33N 51°21' E 002°22'1313.0
2015-Mar-26 01:33N 51°22' E 002°43'1413.8
2015-Mar-26 00:34N 51°24' E 003°05'1717.4
2015-Mar-25 23:33N 51°26' E 003°33'1211.7
2015-Mar-25 22:34N 51°21' E 003°50'1111.1
2015-Mar-25 21:33N 51°22' E 004°07'7 7.0
2015-Mar-25 20:34N 51°18' E 004°16'0 0.0
2015-Mar-25 19:32N 51°18' E 004°16'0 0.0
2015-Mar-25 18:32N 51°18' E 004°16'0 0.0
2015-Mar-25 17:32N 51°18' E 004°16'0 0.0
2015-Mar-25 16:32N 51°18' E 004°16'0 0.0
2015-Mar-25 15:33N 51°18' E 004°16'0 0.0
2015-Mar-25 14:33N 51°18' E 004°16'0 0.0
2015-Mar-25 13:33N 51°18' E 004°16'0 0.0
2015-Mar-25 12:33N 51°18' E 004°16'0 0.0
2015-Mar-25 11:33N 51°18' E 004°16'0 0.0
2015-Mar-25 10:30N 51°18' E 004°16'0 0.0
2015-Mar-25 09:30N 51°18' E 004°16'0 0.0
2015-Mar-25 08:30N 51°18' E 004°16'0 0.0
2015-Mar-25 07:33N 51°18' E 004°16'0 0.0
2015-Mar-25 06:33N 51°18' E 004°16'0 0.0
2015-Mar-25 05:30N 51°18' E 004°16'0 0.0
2015-Mar-25 04:30N 51°18' E 004°16'0 0.2
2015-Mar-25 03:33N 51°18' E 004°16'7 7.3
2015-Mar-25 02:34N 51°22' E 004°07'1110.5
2015-Mar-25 01:34N 51°21' E 003°50'1212.0
2015-Mar-25 00:33N 51°25' E 003°32'1211.9
2015-Mar-24 23:33N 51°24' E 003°13'1212.2
2015-Mar-24 22:33N 51°22' E 002°54'1010.2
2015-Mar-24 21:33N 51°22' E 002°38'1212.0
2015-Mar-24 20:33N 51°19' E 002°19'1313.5
2015-Mar-24 19:33N 51°23' E 001°58'1515.5
2015-Mar-24 18:33N 51°38' E 001°55'1 0.7
2015-Mar-24 17:32N 51°37' E 001°54'1 1.5
2015-Mar-24 16:32N 51°36' E 001°54'1 1.5
2015-Mar-24 15:32N 51°35' E 001°52'1 1.2
2015-Mar-24 14:32N 51°34' E 001°50'2 1.7
2015-Mar-24 13:33N 51°33' E 001°48'8 7.9
2015-Mar-24 12:33N 51°41' E 001°45'1010.0
2015-Mar-24 11:33N 51°51' E 001°41'6 6.0
2015-Mar-24 10:33N 51°47' E 001°32'1010.4
2015-Mar-24 09:33N 51°39' E 001°23'1313.3
2015-Mar-24 08:33N 51°31' E 001°05'1414.3
2015-Mar-24 07:34N 51°30' E 000°43'8 7.9
2015-Mar-24 06:33N 51°30' E 000°30'0 0.0
2015-Mar-24 05:31N 51°30' E 000°30'0 0.0
2015-Mar-24 04:28N 51°30' E 000°30'0 0.0
2015-Mar-24 03:31N 51°30' E 000°30'0 0.0
2015-Mar-24 02:33N 51°30' E 000°30'0 0.0
2015-Mar-24 01:33N 51°30' E 000°30'0 0.0
2015-Mar-24 00:33N 51°30' E 000°30'0 0.0
2015-Mar-23 23:31N 51°30' E 000°30'0 0.0
2015-Mar-23 22:33N 51°30' E 000°30'0 0.0
2015-Mar-23 21:33N 51°30' E 000°30'0 0.0
2015-Mar-23 20:33N 51°30' E 000°30'0 0.0
2015-Mar-23 19:32N 51°30' E 000°30'0 0.0
2015-Mar-23 18:32N 51°30' E 000°30'0 0.0
2015-Mar-23 17:34N 51°30' E 000°30'0 0.0
2015-Mar-23 16:33N 51°30' E 000°30'0 0.0
2015-Mar-23 15:33N 51°30' E 000°30'0 0.0
2015-Mar-23 14:30N 51°30' E 000°30'0 0.0
2015-Mar-23 13:33N 51°30' E 000°30'0 0.0
2015-Mar-23 12:33N 51°30' E 000°30'0 0.0
2015-Mar-23 11:29N 51°30' E 000°30'0 0.0
2015-Mar-23 10:32N 51°30' E 000°30'0 0.0
2015-Mar-23 09:32N 51°30' E 000°30'0 0.0
2015-Mar-23 08:32N 51°30' E 000°30'0 0.0
2015-Mar-23 07:32N 51°30' E 000°30'0 0.0
2015-Mar-23 06:32N 51°30' E 000°30'0 0.1
2015-Mar-23 05:33N 51°30' E 000°30'7 7.0
2015-Mar-23 04:34N 51°30' E 000°41'1514.8
2015-Mar-23 03:33N 51°31' E 001°05'1616.0
2015-Mar-23 02:33N 51°40' E 001°26'1413.7
2015-Mar-23 01:33N 51°52' E 001°39'5 5.4
2015-Mar-23 00:33N 51°56' E 001°45'8 7.8
2015-Mar-22 23:34N 52°02' E 001°52'1211.5
2015-Mar-22 22:33N 52°10' E 002°05'1211.4
2015-Mar-22 21:31N 52°17' E 002°21'1010.9
2015-Mar-22 20:33N 52°24' E 002°34'19 9.6
2015-Mar-22 18:33N 52°36' E 002°58'8 8.1
2015-Mar-22 17:33N 52°42' E 003°08'8 7.2
2015-Mar-22 16:23N 52°47' E 003°19'6 7.0
2015-Mar-22 15:32N 52°49' E 003°28'8 7.7
2015-Mar-22 14:32N 52°52' E 003°40'20 9.1
2015-Mar-22 12:20N 53°03' E 004°08'28 8.8
2015-Mar-22 09:10N 53°26' E 004°35'5 7.2
2015-Mar-22 08:26N 53°29' E 004°42'7 7.5
2015-Mar-22 07:26N 53°32' E 004°53'6 7.2
2015-Mar-22 06:33N 53°35' E 005°03'8 8.0
2015-Mar-22 05:33N 53°37' E 005°15'9 9.2
2015-Mar-22 04:33N 53°41' E 005°30'1010.1
2015-Mar-22 03:33N 53°44' E 005°46'1010.4
2015-Mar-22 02:33N 53°47' E 006°03'1010.2
2015-Mar-22 01:32N 53°50' E 006°20'27 9.0
2015-Mar-21 22:32N 53°56' E 007°05'8 7.8
2015-Mar-21 21:33N 53°58' E 007°17'8 7.6
2015-Mar-21 20:33N 53°59' E 007°30'10 9.6
2015-Mar-21 19:33N 54°01' E 007°46'9 9.2
2015-Mar-21 18:33N 54°01' E 008°01'1313.5
2015-Mar-21 17:33N 53°59' E 008°24'1717.3
2015-Mar-21 16:33N 53°50' E 008°49'1515.1
2015-Mar-21 15:34N 53°53' E 009°15'1312.8
2015-Mar-21 14:33N 53°43' E 009°29'1010.4
2015-Mar-21 13:33N 53°34' E 009°39'8 8.2
2015-Mar-21 12:33N 53°33' E 009°52'1 1.4
2015-Mar-21 11:31N 53°32' E 009°55'0 0.0
2015-Mar-21 10:32N 53°32' E 009°55'0 0.0
2015-Mar-21 09:32N 53°32' E 009°55'0 0.0
2015-Mar-21 08:33N 53°32' E 009°55'0 0.0
2015-Mar-21 07:32N 53°32' E 009°55'0 0.0
2015-Mar-21 06:33N 53°32' E 009°55'0 0.0
2015-Mar-21 05:32N 53°32' E 009°55'0 0.0
2015-Mar-21 04:32N 53°32' E 009°55'0 0.0
2015-Mar-21 03:29N 53°32' E 009°55'0 0.0
2015-Mar-21 02:33N 53°32' E 009°55'0 0.0
2015-Mar-21 01:33N 53°32' E 009°55'0 0.0
2015-Mar-21 00:33N 53°32' E 009°55'0 0.0
2015-Mar-20 23:32N 53°32' E 009°55'0 0.0
2015-Mar-20 22:32N 53°32' E 009°55'0 0.0
2015-Mar-20 21:33N 53°32' E 009°55'0 0.0
2015-Mar-20 20:33N 53°32' E 009°55'0 0.0
2015-Mar-20 19:30N 53°32' E 009°55'0 0.0
2015-Mar-20 18:33N 53°32' E 009°55'0 0.0
2015-Mar-20 17:33N 53°32' E 009°55'0 0.0
2015-Mar-20 16:31N 53°32' E 009°55'0 0.0
2015-Mar-20 15:31N 53°32' E 009°55'0 0.0
2015-Mar-20 14:31N 53°32' E 009°55'0 0.0
2015-Mar-20 13:31N 53°32' E 009°55'0 0.0
2015-Mar-20 12:33N 53°32' E 009°55'8 8.0
2015-Mar-20 11:33N 53°34' E 009°41'1312.8
2015-Mar-20 10:33N 53°44' E 009°27'1413.6
2015-Mar-20 09:34N 53°53' E 009°10'1414.3
2015-Mar-20 08:33N 53°51' E 008°46'1414.4
2015-Mar-20 07:33N 53°59' E 008°26'1615.5
2015-Mar-20 06:32N 53°58' E 007°59'1717.0
2015-Mar-20 05:33N 53°55' E 007°31'1616.2
2015-Mar-20 04:33N 53°52' E 007°04'1615.9
2015-Mar-20 03:31N 53°48' E 006°37'1515.5
2015-Mar-20 02:31N 53°44' E 006°12'1515.1
2015-Mar-20 01:33N 53°39' E 005°49'1515.3
2015-Mar-20 00:33N 53°34' E 005°24'1515.1
2015-Mar-19 23:33N 53°29' E 005°01'1514.6
2015-Mar-19 22:33N 53°21' E 004°40'1515.1
2015-Mar-19 21:33N 53°08' E 004°28'1515.1
2015-Mar-19 20:34N 52°54' E 004°16'1515.1
2015-Mar-19 19:33N 52°42' E 004°01'1514.8
2015-Mar-19 18:33N 52°28' E 003°55'1515.4
2015-Mar-19 17:33N 52°12' E 003°53'1212.0
2015-Mar-19 16:33N 52°01' E 003°60'1111.5
2015-Mar-19 15:33N 51°55' E 004°15'6 5.6
2015-Mar-19 14:33N 51°53' E 004°24'0 0.0
2015-Mar-19 13:33N 51°53' E 004°24'0 0.0
2015-Mar-19 12:33N 51°53' E 004°24'0 0.0
2015-Mar-19 11:33N 51°53' E 004°24'0 0.0
2015-Mar-19 10:33N 51°53' E 004°24'0 0.0
2015-Mar-19 09:33N 51°53' E 004°24'0 0.0
2015-Mar-19 08:33N 51°53' E 004°24'0 0.0
2015-Mar-19 07:33N 51°53' E 004°24'0 0.0
2015-Mar-19 06:33N 51°53' E 004°24'0 0.0
2015-Mar-19 05:33N 51°53' E 004°24'0 0.0
2015-Mar-19 04:33N 51°53' E 004°24'0 0.0
2015-Mar-19 03:33N 51°53' E 004°24'0 0.0
2015-Mar-19 02:33N 51°53' E 004°24'0 0.0
2015-Mar-19 01:33N 51°53' E 004°24'0 0.0
2015-Mar-19 00:33N 51°53' E 004°24'0 0.0
2015-Mar-18 23:33N 51°53' E 004°24'0 0.0
2015-Mar-18 22:33N 51°53' E 004°24'0 0.0
2015-Mar-18 21:33N 51°53' E 004°24'0 0.0
2015-Mar-18 20:33N 51°53' E 004°24'0 0.0
2015-Mar-18 19:33N 51°53' E 004°24'0 0.0
2015-Mar-18 18:33N 51°53' E 004°24'0 0.0
2015-Mar-18 17:33N 51°53' E 004°24'0 0.0
2015-Mar-18 16:33N 51°53' E 004°24'0 0.0
2015-Mar-18 15:33N 51°53' E 004°24'0 0.0
2015-Mar-18 14:34N 51°53' E 004°24'1 1.5
2015-Mar-18 13:34N 51°54' E 004°23'9 8.9
2015-Mar-18 12:33N 51°58' E 004°09'1010.0
2015-Mar-18 11:33N 51°60' E 003°54'1211.7
2015-Mar-18 10:33N 51°57' E 003°35'1716.7
2015-Mar-18 09:32N 51°52' E 003°08'1616.0
2015-Mar-18 08:32N 51°48' E 002°44'1414.7
2015-Mar-18 07:33N 51°39' E 002°26'1413.8
2015-Mar-18 06:33N 51°27' E 002°13'  
Track history (hours):
 
Tides and Currents Weather Stations Pressure Air Temp Water Temp Dewpoint Dewpoint Depression Visibility Wind Speed Wind Dir Waves Ship Positions

Maersk Dayton

Last reported at 2015-Mar-28 06:00 UTC. Time now 2015-Mar-28 09:27 UTC.
Position N 44°54' W 016°12'.

Length 281 m; beam 32.2 m; draft 12.5 m.

Type: Cargo ship. MMSI: 218024000.

Wind from 220 at 30 knots

Waves 4.0 meters (13 feet), 99 second period

Barometer 1026.0 mb
Air temperature 13.5 ° C
Visibility: greater than 5.4 NM
Dewpoint 10.9 ° C
Water temperature 11.7 ° C

Date/timePositionNaut miles runAvg speedWind from/ knotsBaromVisibWave heightAir tempDewpointWater temp
2015-Mar-28 06:00N 44°54' W 016°12'6622.1 220 / 301026.0 5.4 4.013.510.911.7
2015-Mar-28 03:00N 45°24' W 014°48'6913.8 220 / 221026.5 5.4 2.513.0 7.412.3
2015-Mar-27 22:00N 46°00' W 013°24'7218.0 220 / 251027.0 5.4 2.513.0 9.411.5
2015-Mar-27 18:00N 46°36' W 011°54'6516.2 15.0 11.3
2015-Mar-27 14:00N 47°06' W 010°30'6120.3 250 / 221025.5 2.2 3.512.2 9.111.3
2015-Mar-27 11:00N 47°36' W 009°12'7715.4 260 / 251022.0 2.512.011.110.9
2015-Mar-27 06:00N 48°18' W 007°36'19417.0 180 / 221019.5 2.2 2.010.0 9.110.5
2015-Mar-26 18:33N 49°52' W 003°17'1817.9
2015-Mar-26 17:33N 49°59' W 002°51'1818.0
2015-Mar-26 16:32N 50°04' W 002°24'1917.2
2015-Mar-26 15:26N 50°09' W 001°55'1715.6
2015-Mar-26 14:22N 50°13' W 001°30'1314.3
2015-Mar-26 13:28N 50°16' W 001°10'1213.4
2015-Mar-26 12:33N 50°20' W 000°52'1313.4
2015-Mar-26 11:33N 50°23' W 000°32'1514.3
2015-Mar-26 10:30N 50°26' W 000°09'1415.1
2015-Mar-26 09:33N 50°32' E 000°12'1615.9
2015-Mar-26 08:33N 50°37' E 000°36'1616.1
2015-Mar-26 07:33N 50°45' E 000°57'1615.5
2015-Mar-26 06:33N 50°55' E 001°17'1414.0
2015-Mar-26 05:34N 51°04' E 001°33'1313.5
2015-Mar-26 04:34N 51°14' E 001°48'1413.6
2015-Mar-26 03:34N 51°25' E 002°01'1414.1
2015-Mar-26 02:33N 51°21' E 002°22'1313.0
2015-Mar-26 01:33N 51°22' E 002°43'1413.8
2015-Mar-26 00:34N 51°24' E 003°05'1717.4
2015-Mar-25 23:33N 51°26' E 003°33'1211.7
2015-Mar-25 22:34N 51°21' E 003°50'1111.1
2015-Mar-25 21:33N 51°22' E 004°07'7 7.0
2015-Mar-25 20:34N 51°18' E 004°16'0 0.0
2015-Mar-25 19:32N 51°18' E 004°16'0 0.0
2015-Mar-25 18:32N 51°18' E 004°16'0 0.0
2015-Mar-25 17:32N 51°18' E 004°16'0 0.0
2015-Mar-25 16:32N 51°18' E 004°16'0 0.0
2015-Mar-25 15:33N 51°18' E 004°16'0 0.0
2015-Mar-25 14:33N 51°18' E 004°16'0 0.0
2015-Mar-25 13:33N 51°18' E 004°16'0 0.0
2015-Mar-25 12:33N 51°18' E 004°16'0 0.0
2015-Mar-25 11:33N 51°18' E 004°16'0 0.0
2015-Mar-25 10:30N 51°18' E 004°16'0 0.0
2015-Mar-25 09:30N 51°18' E 004°16'0 0.0
2015-Mar-25 08:30N 51°18' E 004°16'0 0.0
2015-Mar-25 07:33N 51°18' E 004°16'0 0.0
2015-Mar-25 06:33N 51°18' E 004°16'0 0.0
2015-Mar-25 05:30N 51°18' E 004°16'0 0.0
2015-Mar-25 04:30N 51°18' E 004°16'0 0.2
2015-Mar-25 03:33N 51°18' E 004°16'7 7.3
2015-Mar-25 02:34N 51°22' E 004°07'1110.5
2015-Mar-25 01:34N 51°21' E 003°50'1212.0
2015-Mar-25 00:33N 51°25' E 003°32'1211.9
2015-Mar-24 23:33N 51°24' E 003°13'1212.2
2015-Mar-24 22:33N 51°22' E 002°54'1010.2
2015-Mar-24 21:33N 51°22' E 002°38'1212.0
2015-Mar-24 20:33N 51°19' E 002°19'1313.5
2015-Mar-24 19:33N 51°23' E 001°58'1515.5
2015-Mar-24 18:33N 51°38' E 001°55'1 0.7
2015-Mar-24 17:32N 51°37' E 001°54'1 1.5
2015-Mar-24 16:32N 51°36' E 001°54'1 1.5
2015-Mar-24 15:32N 51°35' E 001°52'1 1.2
2015-Mar-24 14:32N 51°34' E 001°50'2 1.7
2015-Mar-24 13:33N 51°33' E 001°48'8 7.9
2015-Mar-24 12:33N 51°41' E 001°45'1010.0
2015-Mar-24 11:33N 51°51' E 001°41'6 6.0
2015-Mar-24 10:33N 51°47' E 001°32'1010.4
2015-Mar-24 09:33N 51°39' E 001°23'1313.3
2015-Mar-24 08:33N 51°31' E 001°05'1414.3
2015-Mar-24 07:34N 51°30' E 000°43'8 7.9
2015-Mar-24 06:33N 51°30' E 000°30'0 0.0
2015-Mar-24 05:31N 51°30' E 000°30'0 0.0
2015-Mar-24 04:28N 51°30' E 000°30'0 0.0
2015-Mar-24 03:31N 51°30' E 000°30'0 0.0
2015-Mar-24 02:33N 51°30' E 000°30'0 0.0
2015-Mar-24 01:33N 51°30' E 000°30'0 0.0
2015-Mar-24 00:33N 51°30' E 000°30'0 0.0
2015-Mar-23 23:31N 51°30' E 000°30'0 0.0
2015-Mar-23 22:33N 51°30' E 000°30'0 0.0
2015-Mar-23 21:33N 51°30' E 000°30'0 0.0
2015-Mar-23 20:33N 51°30' E 000°30'0 0.0
2015-Mar-23 19:32N 51°30' E 000°30'0 0.0
2015-Mar-23 18:32N 51°30' E 000°30'0 0.0
2015-Mar-23 17:34N 51°30' E 000°30'0 0.0
2015-Mar-23 16:33N 51°30' E 000°30'0 0.0
2015-Mar-23 15:33N 51°30' E 000°30'0 0.0
2015-Mar-23 14:30N 51°30' E 000°30'0 0.0
2015-Mar-23 13:33N 51°30' E 000°30'0 0.0
2015-Mar-23 12:33N 51°30' E 000°30'0 0.0
2015-Mar-23 11:29N 51°30' E 000°30'0 0.0
2015-Mar-23 10:32N 51°30' E 000°30'0 0.0
2015-Mar-23 09:32N 51°30' E 000°30'0 0.0
2015-Mar-23 08:32N 51°30' E 000°30'0 0.0
2015-Mar-23 07:32N 51°30' E 000°30'0 0.0
2015-Mar-23 06:32N 51°30' E 000°30'0 0.1
2015-Mar-23 05:33N 51°30' E 000°30'7 7.0
2015-Mar-23 04:34N 51°30' E 000°41'1514.8
2015-Mar-23 03:33N 51°31' E 001°05'1616.0
2015-Mar-23 02:33N 51°40' E 001°26'1413.7
2015-Mar-23 01:33N 51°52' E 001°39'5 5.4
2015-Mar-23 00:33N 51°56' E 001°45'8 7.8
2015-Mar-22 23:34N 52°02' E 001°52'1211.5
2015-Mar-22 22:33N 52°10' E 002°05'1211.4
2015-Mar-22 21:31N 52°17' E 002°21'1010.9
2015-Mar-22 20:33N 52°24' E 002°34'19 9.6
2015-Mar-22 18:33N 52°36' E 002°58'8 8.1
2015-Mar-22 17:33N 52°42' E 003°08'8 7.2
2015-Mar-22 16:23N 52°47' E 003°19'6 7.0
2015-Mar-22 15:32N 52°49' E 003°28'8 7.7
2015-Mar-22 14:32N 52°52' E 003°40'20 9.1
2015-Mar-22 12:20N 53°03' E 004°08'28 8.8
2015-Mar-22 09:10N 53°26' E 004°35'5 7.2
2015-Mar-22 08:26N 53°29' E 004°42'7 7.5
2015-Mar-22 07:26N 53°32' E 004°53'6 7.2
2015-Mar-22 06:33N 53°35' E 005°03'8 8.0
2015-Mar-22 05:33N 53°37' E 005°15'9 9.2
2015-Mar-22 04:33N 53°41' E 005°30'1010.1
2015-Mar-22 03:33N 53°44' E 005°46'1010.4
2015-Mar-22 02:33N 53°47' E 006°03'1010.2
2015-Mar-22 01:32N 53°50' E 006°20'27 9.0
2015-Mar-21 22:32N 53°56' E 007°05'8 7.8
2015-Mar-21 21:33N 53°58' E 007°17'8 7.6
2015-Mar-21 20:33N 53°59' E 007°30'10 9.6
2015-Mar-21 19:33N 54°01' E 007°46'9 9.2
2015-Mar-21 18:33N 54°01' E 008°01'1313.5
2015-Mar-21 17:33N 53°59' E 008°24'1717.3
2015-Mar-21 16:33N 53°50' E 008°49'1515.1
2015-Mar-21 15:34N 53°53' E 009°15'1312.8
2015-Mar-21 14:33N 53°43' E 009°29'1010.4
2015-Mar-21 13:33N 53°34' E 009°39'8 8.2
2015-Mar-21 12:33N 53°33' E 009°52'1 1.4
2015-Mar-21 11:31N 53°32' E 009°55'0 0.0
2015-Mar-21 10:32N 53°32' E 009°55'0 0.0
2015-Mar-21 09:32N 53°32' E 009°55'0 0.0
2015-Mar-21 08:33N 53°32' E 009°55'0 0.0
2015-Mar-21 07:32N 53°32' E 009°55'0 0.0
2015-Mar-21 06:33N 53°32' E 009°55'0 0.0
2015-Mar-21 05:32N 53°32' E 009°55'0 0.0
2015-Mar-21 04:32N 53°32' E 009°55'0 0.0
2015-Mar-21 03:29N 53°32' E 009°55'0 0.0
2015-Mar-21 02:33N 53°32' E 009°55'0 0.0
2015-Mar-21 01:33N 53°32' E 009°55'0 0.0
2015-Mar-21 00:33N 53°32' E 009°55'0 0.0
2015-Mar-20 23:32N 53°32' E 009°55'0 0.0
2015-Mar-20 22:32N 53°32' E 009°55'0 0.0
2015-Mar-20 21:33N 53°32' E 009°55'0 0.0
2015-Mar-20 20:33N 53°32' E 009°55'0 0.0
2015-Mar-20 19:30N 53°32' E 009°55'0 0.0
2015-Mar-20 18:33N 53°32' E 009°55'0 0.0
2015-Mar-20 17:33N 53°32' E 009°55'0 0.0
2015-Mar-20 16:31N 53°32' E 009°55'0 0.0
2015-Mar-20 15:31N 53°32' E 009°55'0 0.0
2015-Mar-20 14:31N 53°32' E 009°55'0 0.0
2015-Mar-20 13:31N 53°32' E 009°55'0 0.0
2015-Mar-20 12:33N 53°32' E 009°55'8 8.0
2015-Mar-20 11:33N 53°34' E 009°41'1312.8
2015-Mar-20 10:33N 53°44' E 009°27'1413.6
2015-Mar-20 09:34N 53°53' E 009°10'1414.3
2015-Mar-20 08:33N 53°51' E 008°46'1414.4
2015-Mar-20 07:33N 53°59' E 008°26'1615.5
2015-Mar-20 06:32N 53°58' E 007°59'1717.0
2015-Mar-20 05:33N 53°55' E 007°31'1616.2
2015-Mar-20 04:33N 53°52' E 007°04'1615.9
2015-Mar-20 03:31N 53°48' E 006°37'1515.5
2015-Mar-20 02:31N 53°44' E 006°12'1515.1
2015-Mar-20 01:33N 53°39' E 005°49'1515.3
2015-Mar-20 00:33N 53°34' E 005°24'1515.1
2015-Mar-19 23:33N 53°29' E 005°01'1514.6
2015-Mar-19 22:33N 53°21' E 004°40'1515.1
2015-Mar-19 21:33N 53°08' E 004°28'1515.1
2015-Mar-19 20:34N 52°54' E 004°16'1515.1
2015-Mar-19 19:33N 52°42' E 004°01'1514.8
2015-Mar-19 18:33N 52°28' E 003°55'1515.4
2015-Mar-19 17:33N 52°12' E 003°53'1212.0
2015-Mar-19 16:33N 52°01' E 003°60'1111.5
2015-Mar-19 15:33N 51°55' E 004°15'6 5.6
2015-Mar-19 14:33N 51°53' E 004°24'0 0.0
2015-Mar-19 13:33N 51°53' E 004°24'0 0.0
2015-Mar-19 12:33N 51°53' E 004°24'0 0.0
2015-Mar-19 11:33N 51°53' E 004°24'0 0.0
2015-Mar-19 10:33N 51°53' E 004°24'0 0.0
2015-Mar-19 09:33N 51°53' E 004°24'0 0.0
2015-Mar-19 08:33N 51°53' E 004°24'0 0.0
2015-Mar-19 07:33N 51°53' E 004°24'0 0.0
2015-Mar-19 06:33N 51°53' E 004°24'0 0.0
2015-Mar-19 05:33N 51°53' E 004°24'0 0.0
2015-Mar-19 04:33N 51°53' E 004°24'0 0.0
2015-Mar-19 03:33N 51°53' E 004°24'0 0.0
2015-Mar-19 02:33N 51°53' E 004°24'0 0.0
2015-Mar-19 01:33N 51°53' E 004°24'0 0.0
2015-Mar-19 00:33N 51°53' E 004°24'0 0.0
2015-Mar-18 23:33N 51°53' E 004°24'0 0.0
2015-Mar-18 22:33N 51°53' E 004°24'0 0.0
2015-Mar-18 21:33N 51°53' E 004°24'0 0.0
2015-Mar-18 20:33N 51°53' E 004°24'0 0.0
2015-Mar-18 19:33N 51°53' E 004°24'0 0.0
2015-Mar-18 18:33N 51°53' E 004°24'0 0.0
2015-Mar-18 17:33N 51°53' E 004°24'0 0.0
2015-Mar-18 16:33N 51°53' E 004°24'0 0.0
2015-Mar-18 15:33N 51°53' E 004°24'0 0.0
2015-Mar-18 14:34N 51°53' E 004°24'1 1.5
2015-Mar-18 13:34N 51°54' E 004°23'9 8.9
2015-Mar-18 12:33N 51°58' E 004°09'1010.0
2015-Mar-18 11:33N 51°60' E 003°54'1211.7
2015-Mar-18 10:33N 51°57' E 003°35'1716.7
2015-Mar-18 09:32N 51°52' E 003°08'1616.0
2015-Mar-18 08:32N 51°48' E 002°44'1414.7
2015-Mar-18 07:33N 51°39' E 002°26'1413.8
2015-Mar-18 06:33N 51°27' E 002°13'  

Dump ship's entire track history